LFMD/CEQ METAR and TAF weather

Enter ICAO airport designator
Station Type Date Time Source
LFMD METAR 2019/04/23 04:00 UTC NOAA

LFMD 230400Z AUTO VRB04KT 9999 OVC048 15/08 Q0999 TEMPO SHRA BKN014 SCT020TCU


Station Type Date Time Source
LFMD Decoded METAR 2019/04/23 04:00 UTC NOAA

Cannes, France (LFMD) 43-33N 006-57E 9M
Apr 23, 2019 - 12:00 AM EDT / 2019.04.23 0400 UTC
Wind: Variable at 5 MPH (4 KT):0
Visibility: greater than 7 mile(s):0
Sky conditions: overcast
Weather: Towering cumulus clouds observed
Temperature: 59 F (15 C)
Dew Point: 46 F (8 C)
Relative Humidity: 62%
Pressure (altimeter): 29.50 in. Hg (0999 hPa)
ob: LFMD 230400Z AUTO VRB04KT 9999 OVC048 15/08 Q0999 TEMPO SHRA BKN014 SCT020TCU
cycle: 4

Station Type Date Time Source
LFMD TAF 2019/04/23 03:42 UTC NOAA

TAF LFMD 230200Z 2303/2403 VRB05KT 9999 BKN040
TEMPO 2303/2403 SHRA BKN014 SCT020TCU
BECMG 2304/2307 11010KT PROB30
TEMPO 2307/2315 3000 TSRA OVC012 SCT020CB
BECMG 2319/2322 VRB04KT

Example: see airport list